PRIVATE WETTERSTATION BILLIGHEIM-ALLFELD                       ZURCK
Wetterdaten: Samstag, 08.04.2017
Datum Zeit Temp. A. Temp. A. min Temp. A. max Feuchte A. Luftdruck Regen Wind Richtung Richtung Sonnenschein ET Solar Taupunkt Windchill Windben Empfang
08.04.2017 00:00 5,3 C 5,3 C 5,5 C 86 % 1024,3 hPa 0,0 l/m 0,0 km/h (0 Bft) N 0 0 min 0,000 mm 0 W/m 3,2 C 5,3 C 0,0 km/h (0 Bft) 97 %
08.04.2017 00:10 5,1 C 5,1 C 5,3 C 86 % 1024,3 hPa 0,0 l/m 0,0 km/h (0 Bft) N 0 0 min 0,000 mm 0 W/m 3,0 C 5,1 C 0,0 km/h (0 Bft) 93 %
08.04.2017 00:20 4,9 C 4,9 C 5,1 C 87 % 1024,4 hPa 0,0 l/m 0,0 km/h (0 Bft) N 0 0 min 0,000 mm 0 W/m 2,9 C 4,9 C 0,0 km/h (0 Bft) 93 %
08.04.2017 00:30 4,7 C 4,7 C 4,9 C 87 % 1024,4 hPa 0,0 l/m 0,0 km/h (0 Bft) N 0 0 min 0,000 mm 0 W/m 2,7 C 4,7 C 0,0 km/h (0 Bft) 98 %
08.04.2017 00:40 4,4 C 4,4 C 4,7 C 87 % 1024,4 hPa 0,0 l/m 0,0 km/h (0 Bft) N 0 0 min 0,000 mm 0 W/m 2,4 C 4,4 C 0,0 km/h (0 Bft) 97 %
08.04.2017 00:50 4,3 C 4,3 C 4,4 C 88 % 1024,4 hPa 0,0 l/m 0,0 km/h (0 Bft) N 0 0 min 0,000 mm 0 W/m 2,5 C 4,3 C 0,0 km/h (0 Bft) 98 %
08.04.2017 01:00 4,2 C 4,2 C 4,3 C 89 % 1024,3 hPa 0,0 l/m 0,0 km/h (0 Bft) N 0 0 min 0,000 mm 0 W/m 2,6 C 4,2 C 0,0 km/h (0 Bft) 98 %
08.04.2017 01:10 4,3 C 4,2 C 4,3 C 94 % 1024,2 hPa 0,0 l/m 0,0 km/h (0 Bft) N 0 0 min 0,000 mm 0 W/m 3,4 C 4,3 C 0,0 km/h (0 Bft) 97 %
08.04.2017 01:20 4,2 C 4,2 C 4,3 C 89 % 1024,1 hPa 0,0 l/m 0,0 km/h (0 Bft) N 0 0 min 0,000 mm 0 W/m 2,6 C 4,2 C 0,0 km/h (0 Bft) 97 %
08.04.2017 01:30 4,1 C 4,1 C 4,2 C 89 % 1024,2 hPa 0,0 l/m 0,0 km/h (0 Bft) N 0 0 min 0,000 mm 0 W/m 2,5 C 4,1 C 1,6 km/h (1 Bft) 98 %
08.04.2017 01:40 3,9 C 3,9 C 4,1 C 89 % 1024,2 hPa 0,0 l/m 0,0 km/h (0 Bft) N 0 0 min 0,000 mm 0 W/m 2,3 C 3,9 C 0,0 km/h (0 Bft) 98 %
08.04.2017 01:50 3,7 C 3,7 C 3,9 C 89 % 1024,2 hPa 0,0 l/m 0,0 km/h (0 Bft) N 0 0 min 0,000 mm 0 W/m 2,1 C 3,7 C 0,0 km/h (0 Bft) 97 %
08.04.2017 02:00 3,6 C 3,6 C 3,7 C 89 % 1024,2 hPa 0,0 l/m 0,0 km/h (0 Bft) N 0 0 min 0,000 mm 0 W/m 2,0 C 3,6 C 0,0 km/h (0 Bft) 98 %
08.04.2017 02:10 3,3 C 3,3 C 3,6 C 89 % 1024,2 hPa 0,0 l/m 0,0 km/h (0 Bft) N 0 0 min 0,000 mm 0 W/m 1,7 C 3,3 C 0,0 km/h (0 Bft) 98 %
08.04.2017 02:20 3,0 C 3,0 C 3,3 C 89 % 1024,1 hPa 0,0 l/m 0,0 km/h (0 Bft) N 0 0 min 0,000 mm 0 W/m 1,4 C 3,0 C 0,0 km/h (0 Bft) 97 %
08.04.2017 02:30 2,9 C 2,9 C 3,0 C 90 % 1024,0 hPa 0,0 l/m 0,0 km/h (0 Bft) N 0 0 min 0,000 mm 0 W/m 1,4 C 2,9 C 0,0 km/h (0 Bft) 98 %
08.04.2017 02:40 3,4 C 2,9 C 3,4 C 90 % 1024,0 hPa 0,0 l/m 0,0 km/h (0 Bft) N 0 0 min 0,000 mm 0 W/m 1,9 C 3,4 C 0,0 km/h (0 Bft) 97 %
08.04.2017 02:50 3,8 C 3,4 C 3,8 C 90 % 1024,0 hPa 0,0 l/m 0,0 km/h (0 Bft) N 0 0 min 0,000 mm 0 W/m 2,3 C 3,8 C 0,0 km/h (0 Bft) 98 %
08.04.2017 03:00 3,9 C 3,8 C 3,9 C 90 % 1024,0 hPa 0,0 l/m 0,0 km/h (0 Bft) N 0 0 min 0,000 mm 0 W/m 2,4 C 3,9 C 0,0 km/h (0 Bft) 97 %
08.04.2017 03:10 4,0 C 3,9 C 4,0 C 90 % 1023,9 hPa 0,0 l/m 0,0 km/h (0 Bft) N 0 0 min 0,000 mm 0 W/m 2,5 C 4,0 C 0,0 km/h (0 Bft) 96 %
08.04.2017 03:20 3,9 C 3,9 C 3,9 C 90 % 1023,9 hPa 0,0 l/m 0,0 km/h (0 Bft) N 0 0 min 0,000 mm 0 W/m 2,4 C 3,9 C 0,0 km/h (0 Bft) 97 %
08.04.2017 03:30 3,9 C 3,9 C 3,9 C 90 % 1023,9 hPa 0,0 l/m 0,0 km/h (0 Bft) N 0 0 min 0,000 mm 0 W/m 2,4 C 3,9 C 0,0 km/h (0 Bft) 98 %
08.04.2017 03:40 3,9 C 3,9 C 3,9 C 90 % 1023,8 hPa 0,0 l/m 0,0 km/h (0 Bft) N 0 0 min 0,000 mm 0 W/m 2,4 C 3,9 C 0,0 km/h (0 Bft) 99 %
08.04.2017 03:50 4,1 C 3,9 C 4,1 C 90 % 1023,8 hPa 0,0 l/m 0,0 km/h (0 Bft) N 0 0 min 0,000 mm 0 W/m 2,6 C 4,1 C 0,0 km/h (0 Bft) 89 %
08.04.2017 04:00 4,2 C 4,1 C 4,2 C 90 % 1023,8 hPa 0,0 l/m 0,0 km/h (0 Bft) N 0 0 min 0,000 mm 0 W/m 2,7 C 4,2 C 0,0 km/h (0 Bft) 100 %
08.04.2017 04:10 4,4 C 4,2 C 4,4 C 90 % 1023,7 hPa 0,0 l/m 0,0 km/h (0 Bft) N 0 0 min 0,000 mm 0 W/m 2,9 C 4,4 C 0,0 km/h (0 Bft) 100 %
08.04.2017 04:20 4,6 C 4,4 C 4,6 C 90 % 1023,8 hPa 0,0 l/m 0,0 km/h (0 Bft) N 0 0 min 0,000 mm 0 W/m 3,1 C 4,6 C 0,0 km/h (0 Bft) 100 %
08.04.2017 04:30 4,6 C 4,6 C 4,6 C 90 % 1023,7 hPa 0,0 l/m 0,0 km/h (0 Bft) N 0 0 min 0,000 mm 0 W/m 3,1 C 4,6 C 0,0 km/h (0 Bft) 100 %
08.04.2017 04:40 4,7 C 4,6 C 4,7 C 90 % 1023,7 hPa 0,0 l/m 0,0 km/h (0 Bft) N 0 0 min 0,000 mm 0 W/m 3,2 C 4,7 C 0,0 km/h (0 Bft) 100 %
08.04.2017 04:50 4,7 C 4,6 C 4,7 C 91 % 1023,6 hPa 0,0 l/m 0,0 km/h (0 Bft) N 0 0 min 0,000 mm 0 W/m 3,4 C 4,7 C 0,0 km/h (0 Bft) 99 %
08.04.2017 05:00 4,8 C 4,7 C 4,8 C 90 % 1023,6 hPa 0,0 l/m 0,0 km/h (0 Bft) N 0 0 min 0,000 mm 0 W/m 3,3 C 4,8 C 0,0 km/h (0 Bft) 100 %
08.04.2017 05:10 4,9 C 4,8 C 4,9 C 90 % 1023,6 hPa 0,0 l/m 0,0 km/h (0 Bft) N 0 0 min 0,000 mm 0 W/m 3,4 C 4,9 C 0,0 km/h (0 Bft) 99 %
08.04.2017 05:20 5,1 C 4,9 C 5,1 C 91 % 1023,6 hPa 0,0 l/m 0,0 km/h (0 Bft) N 0 0 min 0,000 mm 0 W/m 3,8 C 5,1 C 0,0 km/h (0 Bft) 100 %
08.04.2017 05:30 5,2 C 5,0 C 5,2 C 91 % 1023,6 hPa 0,0 l/m 0,0 km/h (0 Bft) N 0 0 min 0,000 mm 0 W/m 3,9 C 5,2 C 0,0 km/h (0 Bft) 100 %
08.04.2017 05:40 5,2 C 5,1 C 5,2 C 90 % 1023,6 hPa 0,0 l/m 0,0 km/h (0 Bft) N 0 0 min 0,000 mm 0 W/m 3,7 C 5,2 C 0,0 km/h (0 Bft) 99 %
08.04.2017 05:50 5,3 C 5,2 C 5,3 C 90 % 1023,5 hPa 0,0 l/m 0,0 km/h (0 Bft) N 0 0 min 0,000 mm 0 W/m 3,8 C 5,3 C 0,0 km/h (0 Bft) 100 %
08.04.2017 06:00 5,4 C 5,3 C 5,4 C 91 % 1023,5 hPa 0,0 l/m 0,0 km/h (0 Bft) N 0 0 min 0,000 mm 0 W/m 4,1 C 5,4 C 0,0 km/h (0 Bft) 100 %
08.04.2017 06:10 5,5 C 5,4 C 5,5 C 91 % 1023,6 hPa 0,0 l/m 0,0 km/h (0 Bft) N 0 0 min 0,000 mm 0 W/m 4,2 C 5,5 C 0,0 km/h (0 Bft) 100 %
08.04.2017 06:20 5,5 C 5,5 C 5,5 C 91 % 1023,6 hPa 0,0 l/m 0,0 km/h (0 Bft) N 0 0 min 0,000 mm 0 W/m 4,2 C 5,5 C 0,0 km/h (0 Bft) 100 %
08.04.2017 06:30 5,6 C 5,5 C 5,6 C 90 % 1023,7 hPa 0,0 l/m 0,0 km/h (0 Bft) N 0 0 min 0,000 mm 0 W/m 4,1 C 5,6 C 0,0 km/h (0 Bft) 100 %
08.04.2017 06:40 5,6 C 5,6 C 5,6 C 90 % 1023,7 hPa 0,0 l/m 0,0 km/h (0 Bft) N 0 0 min 0,000 mm 0 W/m 4,1 C 5,6 C 0,0 km/h (0 Bft) 100 %
08.04.2017 06:50 5,6 C 5,6 C 5,6 C 90 % 1023,9 hPa 0,0 l/m 0,0 km/h (0 Bft) N 0 0 min 0,000 mm 0 W/m 4,1 C 5,6 C 0,0 km/h (0 Bft) 100 %
08.04.2017 07:00 5,6 C 5,6 C 5,6 C 90 % 1023,9 hPa 0,0 l/m 0,0 km/h (0 Bft) N 0 0 min 0,000 mm 0 W/m 4,1 C 5,6 C 0,0 km/h (0 Bft) 100 %
08.04.2017 07:10 5,6 C 5,6 C 5,6 C 90 % 1024,0 hPa 0,0 l/m 0,0 km/h (0 Bft) N 0 0 min 0,000 mm 7 W/m 4,1 C 5,6 C 0,0 km/h (0 Bft) 99 %
08.04.2017 07:20 5,6 C 5,6 C 5,6 C 90 % 1024,1 hPa 0,0 l/m 0,0 km/h (0 Bft) N 0 0 min 0,000 mm 11 W/m 4,1 C 5,6 C 0,0 km/h (0 Bft) 100 %
08.04.2017 07:30 5,6 C 5,6 C 5,6 C 90 % 1024,2 hPa 0,0 l/m 0,0 km/h (0 Bft) N 0 0 min 0,000 mm 14 W/m 4,1 C 5,6 C 0,0 km/h (0 Bft) 100 %
08.04.2017 07:40 5,6 C 5,6 C 5,6 C 90 % 1024,3 hPa 0,0 l/m 0,0 km/h (0 Bft) N 0 0 min 0,000 mm 19 W/m 4,1 C 5,6 C 0,0 km/h (0 Bft) 100 %
08.04.2017 07:50 5,7 C 5,6 C 5,7 C 90 % 1024,3 hPa 0,0 l/m 0,0 km/h (0 Bft) N 0 0 min 0,000 mm 21 W/m 4,2 C 5,7 C 0,0 km/h (0 Bft) 100 %
08.04.2017 08:00 5,7 C 5,7 C 5,7 C 90 % 1024,3 hPa 0,0 l/m 0,0 km/h (0 Bft) N 0 0 min 0,000 mm 30 W/m 4,2 C 5,7 C 0,0 km/h (0 Bft) 100 %
08.04.2017 08:10 5,8 C 5,7 C 5,8 C 90 % 1024,3 hPa 0,0 l/m 0,0 km/h (0 Bft) N 0 0 min 0,000 mm 35 W/m 4,3 C 5,8 C 0,0 km/h (0 Bft) 100 %
08.04.2017 08:20 5,9 C 5,8 C 5,9 C 90 % 1024,3 hPa 0,0 l/m 0,0 km/h (0 Bft) N 0 0 min 0,000 mm 40 W/m 4,4 C 5,9 C 0,0 km/h (0 Bft) 100 %
08.04.2017 08:30 6,1 C 5,8 C 6,1 C 90 % 1024,4 hPa 0,0 l/m 0,0 km/h (0 Bft) NW 319 0 min 0,000 mm 49 W/m 4,6 C 6,1 C 0,0 km/h (0 Bft) 97 %
08.04.2017 08:40 6,2 C 6,1 C 6,2 C 90 % 1024,5 hPa 0,0 l/m 0,0 km/h (0 Bft) NW 319 0 min 0,000 mm 58 W/m 4,7 C 6,2 C 0,0 km/h (0 Bft) 98 %
08.04.2017 08:50 6,4 C 6,2 C 6,4 C 89 % 1024,5 hPa 0,0 l/m 0,0 km/h (0 Bft) NW 319 0 min 0,000 mm 72 W/m 4,7 C 6,4 C 0,0 km/h (0 Bft) 97 %
08.04.2017 09:00 6,5 C 6,4 C 6,5 C 88 % 1024,5 hPa 0,0 l/m 0,0 km/h (0 Bft) NW 319 0 min 0,025 mm 84 W/m 4,7 C 6,5 C 0,0 km/h (0 Bft) 97 %
08.04.2017 09:10 6,8 C 6,5 C 6,8 C 88 % 1024,5 hPa 0,0 l/m 0,0 km/h (0 Bft) NW 319 0 min 0,000 mm 104 W/m 5,0 C 6,8 C 0,0 km/h (0 Bft) 97 %
08.04.2017 09:20 7,0 C 6,8 C 7,0 C 87 % 1024,5 hPa 0,0 l/m 0,0 km/h (0 Bft) NW 319 0 min 0,000 mm 113 W/m 5,0 C 7,0 C 0,0 km/h (0 Bft) 97 %
08.04.2017 09:30 7,2 C 7,0 C 7,2 C 85 % 1024,5 hPa 0,0 l/m 0,0 km/h (0 Bft) NW 319 0 min 0,000 mm 134 W/m 4,9 C 7,2 C 0,0 km/h (0 Bft) 97 %
08.04.2017 09:40 7,4 C 7,2 C 7,4 C 85 % 1024,5 hPa 0,0 l/m 0,0 km/h (0 Bft) NW 319 0 min 0,000 mm 148 W/m 5,0 C 7,4 C 0,0 km/h (0 Bft) 97 %
08.04.2017 09:50 7,7 C 7,4 C 7,7 C 83 % 1024,6 hPa 0,0 l/m 0,0 km/h (0 Bft) NW 320 10 min 0,000 mm 169 W/m 5,0 C 7,7 C 0,0 km/h (0 Bft) 97 %
08.04.2017 10:00 8,1 C 7,7 C 8,1 C 85 % 1024,6 hPa 0,0 l/m 0,0 km/h (0 Bft) NW 319 10 min 0,051 mm 185 W/m 5,7 C 8,1 C 0,0 km/h (0 Bft) 98 %
08.04.2017 10:10 8,4 C 8,1 C 8,4 C 82 % 1024,6 hPa 0,0 l/m 0,0 km/h (0 Bft) NW 319 10 min 0,000 mm 211 W/m 5,5 C 8,4 C 0,0 km/h (0 Bft) 97 %
08.04.2017 10:20 8,9 C 8,4 C 8,9 C 80 % 1024,5 hPa 0,0 l/m 0,0 km/h (0 Bft) NW 319 10 min 0,000 mm 248 W/m 5,6 C 8,9 C 0,0 km/h (0 Bft) 98 %
08.04.2017 10:30 9,3 C 8,9 C 9,3 C 81 % 1024,5 hPa 0,0 l/m 0,0 km/h (0 Bft) NW 319 10 min 0,000 mm 262 W/m 6,2 C 9,3 C 1,6 km/h (1 Bft) 96 %
08.04.2017 10:40 9,9 C 9,3 C 9,9 C 81 % 1024,5 hPa 0,0 l/m 0,0 km/h (0 Bft) NW 319 10 min 0,000 mm 279 W/m 6,8 C 9,9 C 0,0 km/h (0 Bft) 97 %
08.04.2017 10:50 10,3 C 9,9 C 10,3 C 77 % 1024,6 hPa 0,0 l/m 0,0 km/h (0 Bft) NW 319 10 min 0,000 mm 315 W/m 6,4 C 10,3 C 0,0 km/h (0 Bft) 97 %
08.04.2017 11:00 11,0 C 10,3 C 11,0 C 79 % 1024,6 hPa 0,0 l/m 0,0 km/h (0 Bft) NW 319 10 min 0,127 mm 427 W/m 7,5 C 11,0 C 0,0 km/h (0 Bft) 98 %
08.04.2017 11:10 11,8 C 11,0 C 11,8 C 72 % 1024,6 hPa 0,0 l/m 0,0 km/h (0 Bft) N-NW 338 10 min 0,000 mm 719 W/m 6,9 C 11,8 C 0,0 km/h (0 Bft) 98 %
08.04.2017 11:20 12,3 C 11,8 C 12,3 C 70 % 1024,5 hPa 0,0 l/m 0,0 km/h (0 Bft) SO 124 10 min 0,000 mm 346 W/m 7,0 C 12,3 C 1,6 km/h (1 Bft) 97 %
08.04.2017 11:30 12,2 C 12,2 C 12,3 C 68 % 1024,5 hPa 0,0 l/m 0,0 km/h (0 Bft) S-SO 157 10 min 0,000 mm 322 W/m 6,5 C 12,2 C 1,6 km/h (1 Bft) 98 %
08.04.2017 11:40 12,4 C 12,2 C 12,4 C 69 % 1024,5 hPa 0,0 l/m 0,6 km/h (0 Bft) O-NO 71 10 min 0,000 mm 292 W/m 6,9 C 12,4 C 8,0 km/h (2 Bft) 97 %
08.04.2017 11:50 12,7 C 12,4 C 12,7 C 70 % 1024,5 hPa 0,0 l/m 0,3 km/h (0 Bft) O-NO 69 10 min 0,000 mm 501 W/m 7,4 C 12,7 C 4,8 km/h (1 Bft) 98 %
08.04.2017 12:00 12,6 C 12,6 C 12,8 C 68 % 1024,5 hPa 0,0 l/m 0,4 km/h (0 Bft) O-SO 121 10 min 0,229 mm 371 W/m 6,9 C 12,6 C 4,8 km/h (1 Bft) 97 %
08.04.2017 12:10 12,6 C 12,4 C 12,7 C 67 % 1024,5 hPa 0,0 l/m 0,5 km/h (0 Bft) SO 129 10 min 0,000 mm 383 W/m 6,6 C 12,6 C 8,0 km/h (2 Bft) 98 %
08.04.2017 12:20 12,7 C 12,6 C 12,7 C 68 % 1024,4 hPa 0,0 l/m 1,2 km/h (1 Bft) O-SO 113 10 min 0,000 mm 343 W/m 6,9 C 12,7 C 8,0 km/h (2 Bft) 97 %
08.04.2017 12:30 13,1 C 12,7 C 13,1 C 67 % 1024,3 hPa 0,0 l/m 0,0 km/h (0 Bft) S 174 10 min 0,000 mm 408 W/m 7,1 C 13,1 C 1,6 km/h (1 Bft) 98 %
08.04.2017 12:40 13,2 C 13,1 C 13,3 C 66 % 1024,2 hPa 0,0 l/m 0,4 km/h (0 Bft) O 98 10 min 0,000 mm 308 W/m 7,0 C 13,2 C 4,8 km/h (1 Bft) 97 %
08.04.2017 12:50 13,2 C 13,1 C 13,2 C 67 % 1024,0 hPa 0,0 l/m 2,4 km/h (1 Bft) N-NW 329 10 min 0,000 mm 867 W/m 7,2 C 13,2 C 9,7 km/h (2 Bft) 97 %
08.04.2017 13:00 13,6 C 13,2 C 13,6 C 68 % 1023,8 hPa 0,0 l/m 0,9 km/h (0 Bft) NW 325 10 min 0,254 mm 464 W/m 7,8 C 13,6 C 6,4 km/h (2 Bft) 97 %
08.04.2017 13:10 14,3 C 13,6 C 14,3 C 65 % 1023,8 hPa 0,0 l/m 1,2 km/h (1 Bft) N-NO 24 10 min 0,000 mm 856 W/m 7,8 C 14,3 C 9,7 km/h (2 Bft) 97 %
08.04.2017 13:20 14,8 C 14,3 C 14,8 C 64 % 1023,6 hPa 0,0 l/m 1,9 km/h (1 Bft) N-NW 331 10 min 0,000 mm 803 W/m 8,1 C 14,8 C 9,7 km/h (2 Bft) 89 %
08.04.2017 13:30 15,3 C 14,8 C 15,3 C 60 % 1023,6 hPa 0,0 l/m 1,5 km/h (1 Bft) N-NW 336 10 min 0,000 mm 867 W/m 7,6 C 15,3 C 8,0 km/h (2 Bft) 98 %
08.04.2017 13:40 15,6 C 15,3 C 15,6 C 61 % 1023,5 hPa 0,0 l/m 6,1 km/h (2 Bft) NW 311 10 min 0,000 mm 837 W/m 8,1 C 15,6 C 16,1 km/h (3 Bft) 97 %
08.04.2017 13:50 15,9 C 15,6 C 15,9 C 60 % 1023,4 hPa 0,0 l/m 3,6 km/h (1 Bft) N-NO 31 10 min 0,000 mm 793 W/m 8,1 C 15,9 C 14,5 km/h (3 Bft) 98 %
08.04.2017 14:00 15,8 C 15,8 C 15,9 C 59 % 1023,4 hPa 0,0 l/m 0,1 km/h (0 Bft) N-NO 28 10 min 0,432 mm 789 W/m 7,8 C 15,8 C 6,4 km/h (2 Bft) 97 %
08.04.2017 14:10 15,8 C 15,8 C 15,9 C 60 % 1023,2 hPa 0,0 l/m 0,6 km/h (0 Bft) O 98 10 min 0,000 mm 765 W/m 8,1 C 15,8 C 11,3 km/h (2 Bft) 98 %
08.04.2017 14:20 15,7 C 15,7 C 15,8 C 60 % 1023,1 hPa 0,0 l/m 0,6 km/h (0 Bft) N 355 10 min 0,000 mm 752 W/m 8,0 C 15,7 C 6,4 km/h (2 Bft) 97 %
08.04.2017 14:30 16,0 C 15,7 C 16,0 C 58 % 1023,1 hPa 0,0 l/m 0,6 km/h (0 Bft) N-NO 30 10 min 0,000 mm 722 W/m 7,7 C 16,0 C 8,0 km/h (2 Bft) 98 %
08.04.2017 14:40 16,3 C 16,0 C 16,3 C 58 % 1023,0 hPa 0,0 l/m 1,4 km/h (1 Bft) N-NO 27 10 min 0,000 mm 715 W/m 8,0 C 16,3 C 8,0 km/h (2 Bft) 98 %
08.04.2017 14:50 16,3 C 16,3 C 16,3 C 59 % 1022,9 hPa 0,0 l/m 0,9 km/h (0 Bft) NO 55 10 min 0,000 mm 696 W/m 8,3 C 16,3 C 8,0 km/h (2 Bft) 97 %
08.04.2017 15:00 16,3 C 16,3 C 16,3 C 59 % 1022,7 hPa 0,0 l/m 0,6 km/h (0 Bft) NW 325 10 min 0,381 mm 686 W/m 8,3 C 16,3 C 8,0 km/h (2 Bft) 97 %
08.04.2017 15:10 16,7 C 16,3 C 16,7 C 57 % 1022,5 hPa 0,0 l/m 1,1 km/h (1 Bft) NW 315 10 min 0,000 mm 587 W/m 8,1 C 16,7 C 8,0 km/h (2 Bft) 97 %
08.04.2017 15:20 16,6 C 16,6 C 16,9 C 57 % 1022,4 hPa 0,0 l/m 1,0 km/h (0 Bft) SO 126 0 min 0,000 mm 100 W/m 8,0 C 16,6 C 9,7 km/h (2 Bft) 98 %
08.04.2017 15:30 16,5 C 16,4 C 16,6 C 60 % 1022,3 hPa 0,0 l/m 1,9 km/h (1 Bft) W-NW 300 0 min 0,000 mm 93 W/m 8,7 C 16,5 C 6,4 km/h (2 Bft) 98 %
08.04.2017 15:40 16,9 C 16,5 C 16,9 C 56 % 1022,3 hPa 0,0 l/m 5,1 km/h (1 Bft) N-NW 331 0 min 0,000 mm 90 W/m 8,1 C 16,9 C 16,1 km/h (3 Bft) 97 %
08.04.2017 15:50 17,0 C 16,9 C 17,1 C 55 % 1022,3 hPa 0,0 l/m 3,5 km/h (1 Bft) N 9 0 min 0,000 mm 84 W/m 7,9 C 17,0 C 11,3 km/h (2 Bft) 98 %
08.04.2017 16:00 17,1 C 16,9 C 17,1 C 56 % 1022,1 hPa 0,0 l/m 5,1 km/h (1 Bft) NO 36 0 min 0,127 mm 81 W/m 8,3 C 17,1 C 16,1 km/h (3 Bft) 97 %
08.04.2017 16:10 17,1 C 17,0 C 17,1 C 57 % 1022,0 hPa 0,0 l/m 2,9 km/h (1 Bft) W-NW 302 0 min 0,000 mm 76 W/m 8,5 C 17,1 C 9,7 km/h (2 Bft) 98 %
08.04.2017 16:20 17,2 C 17,1 C 17,2 C 55 % 1021,9 hPa 0,0 l/m 3,9 km/h (1 Bft) W-NW 293 0 min 0,000 mm 74 W/m 8,1 C 17,2 C 9,7 km/h (2 Bft) 97 %
08.04.2017 16:30 17,4 C 17,2 C 17,4 C 55 % 1021,9 hPa 0,0 l/m 4,0 km/h (1 Bft) N-NW 338 0 min 0,000 mm 70 W/m 8,3 C 17,4 C 9,7 km/h (2 Bft) 98 %
08.04.2017 16:40 17,6 C 17,4 C 17,6 C 55 % 1021,8 hPa 0,0 l/m 2,7 km/h (1 Bft) NW 305 0 min 0,000 mm 69 W/m 8,5 C 17,6 C 8,0 km/h (2 Bft) 97 %
08.04.2017 16:50 17,6 C 17,6 C 17,6 C 56 % 1021,8 hPa 0,0 l/m 2,3 km/h (1 Bft) W-NW 301 0 min 0,000 mm 67 W/m 8,7 C 17,6 C 11,3 km/h (2 Bft) 97 %
08.04.2017 17:00 17,6 C 17,5 C 17,6 C 56 % 1021,7 hPa 0,0 l/m 2,1 km/h (1 Bft) NW 313 0 min 0,050 mm 63 W/m 8,7 C 17,6 C 11,3 km/h (2 Bft) 98 %
08.04.2017 17:10 17,5 C 17,5 C 17,6 C 57 % 1021,8 hPa 0,0 l/m 3,4 km/h (1 Bft) NW 306 0 min 0,000 mm 62 W/m 8,9 C 17,5 C 11,3 km/h (2 Bft) 97 %
08.04.2017 17:20 17,6 C 17,5 C 17,6 C 56 % 1021,8 hPa 0,0 l/m 2,9 km/h (1 Bft) N-NW 333 0 min 0,000 mm 60 W/m 8,7 C 17,6 C 11,3 km/h (2 Bft) 98 %
08.04.2017 17:30 17,5 C 17,5 C 17,6 C 55 % 1021,7 hPa 0,0 l/m 2,3 km/h (1 Bft) N-NW 337 0 min 0,000 mm 58 W/m 8,4 C 17,5 C 9,7 km/h (2 Bft) 97 %
08.04.2017 17:40 17,3 C 17,3 C 17,5 C 55 % 1021,7 hPa 0,0 l/m 4,2 km/h (1 Bft) NW 306 0 min 0,000 mm 54 W/m 8,2 C 17,3 C 11,3 km/h (2 Bft) 97 %
08.04.2017 17:50 17,1 C 17,1 C 17,3 C 56 % 1021,5 hPa 0,0 l/m 3,7 km/h (1 Bft) NW 317 0 min 0,000 mm 51 W/m 8,3 C 17,1 C 8,0 km/h (2 Bft) 98 %
08.04.2017 18:00 17,1 C 17,1 C 17,2 C 55 % 1021,5 hPa 0,0 l/m 1,7 km/h (1 Bft) NW 318 0 min 0,051 mm 49 W/m 8,0 C 17,1 C 6,4 km/h (2 Bft) 97 %
08.04.2017 18:10 16,9 C 16,9 C 17,1 C 55 % 1021,5 hPa 0,0 l/m 1,9 km/h (1 Bft) N-NW 345 0 min 0,000 mm 47 W/m 7,8 C 16,9 C 6,4 km/h (2 Bft) 98 %
08.04.2017 18:20 16,8 C 16,8 C 16,9 C 55 % 1021,6 hPa 0,0 l/m 0,0 km/h (0 Bft) N-NW 346 0 min 0,000 mm 46 W/m 7,7 C 16,8 C 1,6 km/h (1 Bft) 97 %
08.04.2017 18:30 16,6 C 16,6 C 16,8 C 56 % 1021,6 hPa 0,0 l/m 0,0 km/h (0 Bft) N-NW 346 0 min 0,000 mm 42 W/m 7,8 C 16,6 C 0,0 km/h (0 Bft) 97 %
08.04.2017 18:40 16,3 C 16,3 C 16,6 C 58 % 1021,6 hPa 0,0 l/m 0,0 km/h (0 Bft) N-NW 347 0 min 0,000 mm 40 W/m 8,0 C 16,3 C 1,6 km/h (1 Bft) 98 %
08.04.2017 18:50 16,1 C 16,1 C 16,3 C 57 % 1021,6 hPa 0,0 l/m 0,0 km/h (0 Bft) N 355 0 min 0,000 mm 35 W/m 7,6 C 16,1 C 0,0 km/h (0 Bft) 97 %
08.04.2017 19:00 15,9 C 15,9 C 16,1 C 57 % 1021,6 hPa 0,0 l/m 0,1 km/h (0 Bft) N 355 0 min 0,026 mm 33 W/m 7,4 C 15,9 C 1,6 km/h (1 Bft) 98 %
08.04.2017 19:10 15,7 C 15,7 C 15,9 C 59 % 1021,5 hPa 0,0 l/m 0,0 km/h (0 Bft) N 355 0 min 0,000 mm 30 W/m 7,7 C 15,7 C 1,6 km/h (1 Bft) 97 %
08.04.2017 19:20 15,4 C 15,4 C 15,7 C 61 % 1021,5 hPa 0,0 l/m 0,0 km/h (0 Bft) N 355 0 min 0,000 mm 25 W/m 7,9 C 15,4 C 0,0 km/h (0 Bft) 98 %
08.04.2017 19:30 15,1 C 15,1 C 15,4 C 62 % 1021,6 hPa 0,0 l/m 0,0 km/h (0 Bft) N 355 0 min 0,000 mm 21 W/m 7,9 C 15,1 C 0,0 km/h (0 Bft) 97 %
08.04.2017 19:40 14,7 C 14,7 C 15,1 C 62 % 1021,6 hPa 0,0 l/m 0,0 km/h (0 Bft) N 355 0 min 0,000 mm 16 W/m 7,5 C 14,7 C 1,6 km/h (1 Bft) 97 %
08.04.2017 19:50 14,3 C 14,3 C 14,7 C 62 % 1021,6 hPa 0,0 l/m 0,0 km/h (0 Bft) N 355 0 min 0,000 mm 11 W/m 7,1 C 14,3 C 0,0 km/h (0 Bft) 97 %
08.04.2017 20:00 13,9 C 13,9 C 14,3 C 63 % 1021,6 hPa 0,0 l/m 0,0 km/h (0 Bft) N 355 0 min 0,025 mm 5 W/m 7,0 C 13,9 C 0,0 km/h (0 Bft) 98 %
08.04.2017 20:10 13,5 C 13,5 C 13,9 C 64 % 1021,7 hPa 0,0 l/m 0,1 km/h (0 Bft) N 360 0 min 0,000 mm 0 W/m 6,8 C 13,5 C 3,2 km/h (1 Bft) 100 %
08.04.2017 20:20 13,1 C 13,1 C 13,5 C 67 % 1021,8 hPa 0,0 l/m 2,4 km/h (1 Bft) N-NO 22 0 min 0,000 mm 0 W/m 7,1 C 13,1 C 4,8 km/h (1 Bft) 100 %
08.04.2017 20:30 12,6 C 12,6 C 13,1 C 70 % 1022,0 hPa 0,0 l/m 3,4 km/h (1 Bft) N-NO 32 0 min 0,000 mm 0 W/m 7,3 C 12,6 C 6,4 km/h (2 Bft) 100 %
08.04.2017 20:40 12,2 C 12,2 C 12,6 C 72 % 1022,0 hPa 0,0 l/m 3,4 km/h (1 Bft) NO 34 0 min 0,000 mm 0 W/m 7,3 C 12,2 C 4,8 km/h (1 Bft) 100 %
08.04.2017 20:50 11,7 C 11,7 C 12,2 C 73 % 1022,1 hPa 0,0 l/m 2,9 km/h (1 Bft) N-NO 33 0 min 0,000 mm 0 W/m 7,0 C 11,7 C 4,8 km/h (1 Bft) 100 %
08.04.2017 21:00 11,3 C 11,3 C 11,7 C 74 % 1022,3 hPa 0,0 l/m 3,1 km/h (1 Bft) N-NO 32 0 min 0,025 mm 0 W/m 6,8 C 11,3 C 4,8 km/h (1 Bft) 100 %
08.04.2017 21:10 11,0 C 11,0 C 11,3 C 75 % 1022,4 hPa 0,0 l/m 3,2 km/h (1 Bft) N-NO 22 0 min 0,000 mm 0 W/m 6,7 C 11,0 C 4,8 km/h (1 Bft) 100 %
08.04.2017 21:20 10,8 C 10,8 C 11,0 C 76 % 1022,5 hPa 0,0 l/m 3,2 km/h (1 Bft) N-NO 22 0 min 0,000 mm 0 W/m 6,7 C 10,8 C 4,8 km/h (1 Bft) 100 %
08.04.2017 21:30 10,6 C 10,6 C 10,8 C 77 % 1022,6 hPa 0,0 l/m 0,0 km/h (0 Bft) N-NO 22 0 min 0,000 mm 0 W/m 6,7 C 10,6 C 4,8 km/h (1 Bft) 100 %
08.04.2017 21:40 10,6 C 10,5 C 10,6 C 77 % 1022,6 hPa 0,0 l/m 0,0 km/h (0 Bft) NO 45 0 min 0,000 mm 0 W/m 6,7 C 10,6 C 6,4 km/h (2 Bft) 100 %
08.04.2017 21:50 10,6 C 10,6 C 10,6 C 76 % 1022,6 hPa 0,0 l/m 0,0 km/h (0 Bft) NO 45 0 min 0,000 mm 0 W/m 6,5 C 10,6 C 1,6 km/h (1 Bft) 100 %
08.04.2017 22:00 10,4 C 10,4 C 10,6 C 77 % 1022,6 hPa 0,0 l/m 0,0 km/h (0 Bft) N-NO 22 0 min 0,025 mm 0 W/m 6,5 C 10,4 C 3,2 km/h (1 Bft) 100 %
08.04.2017 22:10 10,2 C 10,2 C 10,4 C 77 % 1022,6 hPa 0,0 l/m 0,0 km/h (0 Bft) N 0 0 min 0,000 mm 0 W/m 6,4 C 10,2 C 0,0 km/h (0 Bft) 99 %
08.04.2017 22:20 9,8 C 9,8 C 10,2 C 78 % 1022,7 hPa 0,0 l/m 0,0 km/h (0 Bft) N 0 0 min 0,000 mm 0 W/m 6,1 C 9,8 C 0,0 km/h (0 Bft) 100 %
08.04.2017 22:30 9,3 C 9,3 C 9,8 C 79 % 1022,8 hPa 0,0 l/m 0,0 km/h (0 Bft) N 0 0 min 0,000 mm 0 W/m 5,8 C 9,3 C 0,0 km/h (0 Bft) 99 %
08.04.2017 22:40 9,0 C 9,0 C 9,3 C 81 % 1022,9 hPa 0,0 l/m 0,0 km/h (0 Bft) N 0 0 min 0,000 mm 0 W/m 5,9 C 9,0 C 0,0 km/h (0 Bft) 100 %
08.04.2017 22:50 8,7 C 8,7 C 8,9 C 82 % 1022,8 hPa 0,0 l/m 0,0 km/h (0 Bft) N 0 0 min 0,000 mm 0 W/m 5,8 C 8,7 C 0,0 km/h (0 Bft) 91 %
08.04.2017 23:00 8,5 C 8,5 C 8,7 C 83 % 1022,9 hPa 0,0 l/m 0,0 km/h (0 Bft) N 0 0 min 0,025 mm 0 W/m 5,8 C 8,5 C 0,0 km/h (0 Bft) 100 %
08.04.2017 23:10 8,3 C 8,3 C 8,5 C 83 % 1022,9 hPa 0,0 l/m 0,0 km/h (0 Bft) N 0 0 min 0,000 mm 0 W/m 5,6 C 8,3 C 0,0 km/h (0 Bft) 100 %
08.04.2017 23:20 8,0 C 8,0 C 8,3 C 84 % 1023,0 hPa 0,0 l/m 0,0 km/h (0 Bft) N 0 0 min 0,000 mm 0 W/m 5,5 C 8,0 C 0,0 km/h (0 Bft) 100 %
08.04.2017 23:30 7,7 C 7,7 C 8,0 C 85 % 1023,0 hPa 0,0 l/m 0,0 km/h (0 Bft) N-NO 22 0 min 0,000 mm 0 W/m 5,3 C 7,7 C 3,2 km/h (1 Bft) 100 %
08.04.2017 23:40 7,6 C 7,6 C 7,7 C 85 % 1023,0 hPa 0,0 l/m 0,0 km/h (0 Bft) N 0 0 min 0,000 mm 0 W/m 5,2 C 7,6 C 0,0 km/h (0 Bft) 100 %
08.04.2017 23:50 7,4 C 7,4 C 7,6 C 86 % 1023,0 hPa 0,0 l/m 0,0 km/h (0 Bft) N 0 0 min 0,000 mm 0 W/m 5,2 C 7,4 C 0,0 km/h (0 Bft) 100 %
_ Min-Zeit 02:30 02:30 02:30 15:50 17:50 - 00:00 - - - - - 02:20 02:30 00:00 13:20
Minimum _ 2,9 C 2,9 C 3,0 C 55 % 1021,5 hPa - 0,0 km/h (0 Bft) - - - - - 1,4 C 2,9 C 0,0 km/h (0 Bft) 89 %
_ Max-Zeit 16:40 16:50 16:40 01:10 09:50 00:00 13:40 - - 09:50 14:00 12:50 17:10 16:40 13:40 04:10
Maximum _ 17,6 C 17,6 C 17,6 C 94 % 1024,6 hPa 0,0 l/m 6,1 km/h
NW (2 Bft)
- - 10 min 0,432 mm 867 W/m 8,9 C 17,6 C 16,1 km/h
NW (3 Bft)
100 %
Durchschnitt _ 10,0 C 9,9 C 10,1 C 76 % 1023,3 hPa #0,0 l/m 0,7 km/h (0 Bft) N-NO - #5:30 h #1,853 mm 254 W/m 5,7 C 10,0 C 3,0 km/h (1 Bft) 98 %
PRIVATE WETTERSTATION BILLIGHEIM-ALLFELD - www.neckar-odenwald-wetter.de - Holger Sonntag